createdAt,value
2018-12-19T00:01:39.819Z,0.10
2018-12-19T00:04:12.715Z,0.10
2018-12-19T00:06:52.400Z,0.10
2018-12-19T00:09:27.197Z,0.10
2018-12-19T00:12:04.639Z,0.10
2018-12-19T00:14:43.651Z,0.20
2018-12-19T00:17:20.169Z,0.20
2018-12-19T00:20:02.101Z,0.30
2018-12-19T00:22:40.636Z,0.20
2018-12-19T00:25:19.990Z,0.20
2018-12-19T00:28:00.639Z,0.20
2018-12-19T00:30:39.795Z,0.20
2018-12-19T00:33:16.291Z,0.10
2018-12-19T00:35:52.627Z,0.00
2018-12-19T00:38:29.708Z,-0.10
2018-12-19T00:41:08.913Z,-0.20
2018-12-19T00:43:44.191Z,-0.20
2018-12-19T00:46:23.471Z,-0.20
2018-12-19T00:49:02.640Z,-0.30
2018-12-19T00:51:41.717Z,-0.30
2018-12-19T00:54:18.880Z,-0.30
2018-12-19T00:56:48.416Z,-0.30
2018-12-19T00:59:23.511Z,-0.30
2018-12-19T01:02:03.280Z,-0.20
2018-12-19T01:04:40.253Z,-0.20
2018-12-19T01:07:17.688Z,-0.20
2018-12-19T01:09:55.027Z,-0.20
2018-12-19T01:12:32.512Z,-0.20
2018-12-19T01:15:14.432Z,-0.20
2018-12-19T01:17:51.404Z,-0.10
2018-12-19T01:20:28.773Z,-0.10
2018-12-19T01:23:05.876Z,-0.10
2018-12-19T01:25:40.515Z,-0.10
2018-12-19T01:28:19.836Z,-0.20
2018-12-19T01:30:54.886Z,-0.20
2018-12-19T01:33:32.373Z,-0.30
2018-12-19T01:36:11.683Z,-0.40
2018-12-19T01:38:46.800Z,-0.40
2018-12-19T01:41:23.859Z,-0.50
2018-12-19T01:44:01.278Z,-0.60
2018-12-19T01:46:40.515Z,-0.60
2018-12-19T01:49:17.759Z,-0.70
2018-12-19T01:52:03.336Z,-0.80
2018-12-19T01:54:38.127Z,-0.90
2018-12-19T01:57:15.628Z,-0.90
2018-12-19T01:59:50.868Z,-0.80
2018-12-19T02:02:28.051Z,-0.90
2018-12-19T02:05:14.410Z,-0.90
2018-12-19T02:07:56.426Z,-1.00
2018-12-19T02:10:33.385Z,-1.00
2018-12-19T02:13:10.462Z,-0.80
2018-12-19T02:15:45.797Z,-0.70
2018-12-19T02:18:20.920Z,-0.70
2018-12-19T02:23:50.168Z,-0.70
2018-12-19T02:26:25.556Z,-0.80
2018-12-19T02:29:00.461Z,-0.90
2018-12-19T02:31:35.431Z,-0.90
2018-12-19T02:34:12.648Z,-0.90
2018-12-19T02:36:48.532Z,-1.00
2018-12-19T02:39:25.493Z,-1.00
2018-12-19T02:42:04.762Z,-1.10
2018-12-19T02:44:43.858Z,-1.20
2018-12-19T02:47:23.147Z,-1.20
2018-12-19T02:50:00.369Z,-1.30
2018-12-19T02:52:37.566Z,-1.30
2018-12-19T02:55:13.617Z,-1.30
2018-12-19T02:57:48.933Z,-1.30
2018-12-19T03:00:25.143Z,-1.20
2018-12-19T03:03:02.050Z,-1.30
2018-12-19T03:05:39.346Z,-1.30
2018-12-19T03:08:16.758Z,-1.30
2018-12-19T03:10:53.274Z,-1.20
2018-12-19T03:13:30.734Z,-1.30
2018-12-19T03:16:10.141Z,-1.40
2018-12-19T03:18:49.535Z,-1.40
2018-12-19T03:21:27.215Z,-1.50
2018-12-19T03:24:06.194Z,-1.50
2018-12-19T03:26:43.378Z,-1.60
2018-12-19T03:29:20.474Z,-1.60
2018-12-19T03:31:59.129Z,-1.50
2018-12-19T03:34:34.193Z,-1.40
2018-12-19T03:37:11.315Z,-1.40
2018-12-19T03:39:50.527Z,-1.40
2018-12-19T03:42:27.491Z,-1.40
2018-12-19T03:45:03.249Z,-1.40
2018-12-19T03:47:40.073Z,-1.50
2018-12-19T03:50:13.657Z,-1.50
2018-12-19T03:52:50.956Z,-1.50
2018-12-19T03:55:30.106Z,-1.40
2018-12-19T03:58:09.134Z,-1.40
2018-12-19T04:00:48.400Z,-1.40
2018-12-19T04:03:26.217Z,-1.30
2018-12-19T04:06:01.201Z,-1.30
2018-12-19T04:08:40.334Z,-1.30
2018-12-19T04:11:15.613Z,-1.30
2018-12-19T04:13:48.936Z,-1.20
2018-12-19T04:16:26.453Z,-1.10
2018-12-19T04:18:59.478Z,-1.20
2018-12-19T04:21:37.250Z,-1.10
2018-12-19T04:24:14.603Z,-1.10
2018-12-19T04:26:47.710Z,-1.10
2018-12-19T04:29:24.423Z,-1.00
2018-12-19T04:31:59.652Z,-1.00
2018-12-19T04:34:39.716Z,-1.00
2018-12-19T04:37:16.671Z,-1.00
2018-12-19T04:39:53.186Z,-0.90
2018-12-19T04:42:31.814Z,-0.90
2018-12-19T04:45:07.589Z,-1.00
2018-12-19T04:47:44.392Z,-1.10
2018-12-19T04:50:19.505Z,-1.10
2018-12-19T04:52:56.677Z,-1.10
2018-12-19T04:55:34.126Z,-1.00
2018-12-19T04:58:04.605Z,-0.90
2018-12-19T05:00:39.426Z,-0.90
2018-12-19T05:03:18.677Z,-1.00
2018-12-19T05:05:53.965Z,-1.00
2018-12-19T05:08:29.334Z,-1.00
2018-12-19T05:11:08.611Z,-1.00
2018-12-19T05:13:47.846Z,-1.10
2018-12-19T05:19:18.970Z,-1.00
2018-12-19T05:21:54.163Z,-0.90
2018-12-19T05:24:33.262Z,-0.90
2018-12-19T05:29:41.783Z,-0.80
2018-12-19T05:32:21.137Z,-0.80
2018-12-19T05:35:00.261Z,-0.80
2018-12-19T05:37:29.422Z,-0.80
2018-12-19T05:40:09.209Z,-0.80
2018-12-19T05:42:44.104Z,-0.80
2018-12-19T05:45:19.635Z,-0.80
2018-12-19T05:47:56.930Z,-0.80
2018-12-19T05:50:38.503Z,-0.90
2018-12-19T05:53:13.529Z,-0.80
2018-12-19T05:55:48.733Z,-0.80
2018-12-19T05:58:24.178Z,-0.80
2018-12-19T06:01:03.211Z,-0.70
2018-12-19T06:03:44.267Z,-0.70
2018-12-19T06:06:23.431Z,-0.80
2018-12-19T06:09:04.935Z,-0.70
2018-12-19T06:11:39.741Z,-0.70
2018-12-19T06:14:18.922Z,-0.80
2018-12-19T06:16:54.172Z,-0.70
2018-12-19T06:19:29.433Z,-0.70
2018-12-19T06:22:08.600Z,-0.70
2018-12-19T06:24:50.207Z,-0.60
2018-12-19T06:27:24.987Z,-0.70
2018-12-19T06:29:57.794Z,-0.80
2018-12-19T06:32:32.435Z,-0.80
2018-12-19T06:35:12.704Z,-0.70
2018-12-19T06:38:38.404Z,-0.70
2018-12-19T06:41:17.765Z,-0.60
2018-12-19T06:46:57.013Z,-0.70
2018-12-19T06:49:32.188Z,-0.70
2018-12-19T06:52:08.497Z,-0.70
2018-12-19T06:54:45.918Z,-0.70
2018-12-19T06:57:25.125Z,-0.70
2018-12-19T07:00:06.881Z,-0.70
2018-12-19T07:02:46.862Z,-0.70
2018-12-19T07:05:25.988Z,-0.70
2018-12-19T07:08:05.398Z,-0.70
2018-12-19T07:10:47.167Z,-0.70
2018-12-19T07:13:21.886Z,-0.60
2018-12-19T07:15:56.871Z,-0.60
2018-12-19T07:18:32.398Z,-0.50
2018-12-19T07:21:07.760Z,-0.60
2018-12-19T07:23:42.747Z,-0.60
2018-12-19T07:26:18.315Z,-0.50
2018-12-19T07:28:57.319Z,-0.50
2018-12-19T07:31:36.777Z,-0.50
2018-12-19T07:34:18.609Z,-0.50
2018-12-19T07:36:54.272Z,-0.40
2018-12-19T07:39:29.333Z,-0.50
2018-12-19T07:42:08.618Z,-0.50
2018-12-19T07:44:47.637Z,-0.30
2018-12-19T07:47:23.065Z,-0.20
2018-12-19T07:49:58.143Z,-0.30
2018-12-19T07:52:33.243Z,-0.20
2018-12-19T07:55:09.097Z,-0.20
2018-12-19T07:57:48.229Z,0.00
2018-12-19T08:00:27.648Z,0.00
2018-12-19T08:03:03.051Z,0.10
2018-12-19T08:05:38.436Z,0.10
2018-12-19T08:08:13.574Z,0.10
2018-12-19T08:10:52.210Z,0.20
2018-12-19T08:13:25.662Z,0.30
2018-12-19T08:16:00.951Z,0.50
2018-12-19T08:18:35.937Z,0.60
2018-12-19T08:21:12.381Z,0.80
2018-12-19T08:23:47.547Z,0.90
2018-12-19T08:26:22.662Z,1.10
2018-12-19T08:28:58.330Z,1.30
2018-12-19T08:31:33.827Z,1.60
2018-12-19T08:34:09.420Z,1.80
2018-12-19T08:36:45.046Z,1.80
2018-12-19T08:39:27.482Z,2.10
2018-12-19T08:42:03.102Z,2.20
2018-12-19T08:44:38.244Z,2.40
2018-12-19T08:47:19.547Z,2.50
2018-12-19T08:49:54.931Z,2.30
2018-12-19T08:52:36.694Z,2.20
2018-12-19T08:55:14.420Z,2.30
2018-12-19T08:57:49.648Z,2.40
2018-12-19T09:00:24.690Z,2.60
2018-12-19T09:02:57.236Z,3.00
2018-12-19T09:05:33.164Z,3.30
2018-12-19T09:08:08.129Z,2.90
2018-12-19T09:10:47.562Z,2.90
2018-12-19T09:13:26.220Z,2.60
2018-12-19T09:16:05.674Z,2.60
2018-12-19T09:18:44.919Z,2.40
2018-12-19T09:21:20.227Z,2.40
2018-12-19T09:23:55.531Z,2.40
2018-12-19T09:26:35.443Z,2.40
2018-12-19T09:29:20.750Z,2.20
2018-12-19T09:31:59.366Z,2.10
2018-12-19T09:34:40.901Z,2.20
2018-12-19T09:37:19.574Z,2.10
2018-12-19T09:42:54.631Z,2.10
2018-12-19T09:45:31.636Z,1.90
2018-12-19T09:48:11.207Z,1.90
2018-12-19T09:50:50.011Z,1.90
2018-12-19T09:53:27.685Z,2.00
2018-12-19T09:56:04.797Z,2.00
2018-12-19T09:58:41.949Z,1.80
2018-12-19T10:01:19.117Z,1.70
2018-12-19T10:03:58.844Z,1.90
2018-12-19T10:06:34.264Z,1.80
2018-12-19T10:09:14.764Z,1.70
2018-12-19T10:11:46.905Z,1.80
2018-12-19T10:14:24.233Z,1.80
2018-12-19T10:16:59.357Z,2.00
2018-12-19T10:19:34.593Z,2.30
2018-12-19T10:22:14.002Z,2.40
2018-12-19T10:25:25.493Z,2.40
2018-12-19T10:28:04.132Z,2.40
2018-12-19T10:30:46.293Z,2.50
2018-12-19T10:33:22.922Z,2.40
2018-12-19T10:36:00.220Z,2.30
2018-12-19T10:38:39.267Z,2.10
2018-12-19T10:41:14.812Z,2.20
2018-12-19T10:43:54.162Z,2.10
2018-12-19T10:46:29.357Z,2.10
2018-12-19T10:49:08.599Z,2.20
2018-12-19T10:51:43.781Z,2.40
2018-12-19T10:54:18.925Z,2.60
2018-12-19T10:56:58.141Z,2.60
2018-12-19T10:59:37.405Z,2.60
2018-12-19T11:02:16.599Z,2.60
2018-12-19T11:04:45.810Z,2.90
2018-12-19T11:07:23.345Z,2.80
2018-12-19T11:09:58.651Z,3.20
2018-12-19T11:12:35.916Z,3.40
2018-12-19T11:15:13.054Z,3.50
2018-12-19T11:17:52.232Z,3.50
2018-12-19T11:20:27.359Z,3.30
2018-12-19T11:23:05.102Z,3.40
2018-12-19T11:25:40.548Z,3.40
2018-12-19T11:28:21.472Z,3.60
2018-12-19T11:30:56.558Z,3.60
2018-12-19T11:33:33.070Z,3.70
2018-12-19T11:36:11.922Z,3.80
2018-12-19T11:38:47.307Z,3.90
2018-12-19T11:41:26.115Z,3.80
2018-12-19T11:44:03.843Z,3.80
2018-12-19T11:46:39.698Z,3.50
2018-12-19T11:49:18.905Z,3.30
2018-12-19T11:51:53.977Z,3.10
2018-12-19T11:54:31.049Z,3.10
2018-12-19T11:57:08.776Z,3.40
2018-12-19T11:59:44.288Z,3.60
2018-12-19T12:02:21.787Z,3.60
2018-12-19T12:04:50.922Z,3.30
2018-12-19T12:07:30.538Z,3.10
2018-12-19T12:10:09.339Z,3.20
2018-12-19T12:12:46.342Z,3.20
2018-12-19T12:15:23.735Z,3.20
2018-12-19T12:17:58.822Z,3.30
2018-12-19T12:20:33.842Z,3.20
2018-12-19T12:23:12.971Z,3.10
2018-12-19T12:25:48.032Z,3.10
2018-12-19T12:28:23.533Z,3.10
2018-12-19T12:31:01.423Z,2.90
2018-12-19T12:33:40.458Z,2.80
2018-12-19T12:36:18.237Z,2.90
2018-12-19T12:38:57.150Z,2.90
2018-12-19T12:41:32.406Z,2.90
2018-12-19T12:44:09.830Z,3.00
2018-12-19T12:46:44.796Z,3.10
2018-12-19T12:49:20.125Z,3.10
2018-12-19T12:52:03.940Z,3.20
2018-12-19T12:54:40.571Z,3.00
2018-12-19T12:57:23.274Z,3.00
2018-12-19T13:00:00.792Z,3.10
2018-12-19T13:02:35.989Z,3.00
2018-12-19T13:05:15.580Z,3.00
2018-12-19T13:07:54.379Z,3.00
2018-12-19T13:10:36.291Z,2.90
2018-12-19T13:13:14.443Z,2.80
2018-12-19T13:15:53.604Z,3.00
2018-12-19T13:18:33.719Z,3.00
2018-12-19T13:21:08.982Z,3.00
2018-12-19T13:23:44.145Z,3.10
2018-12-19T13:26:23.311Z,3.20
2018-12-19T13:28:58.210Z,3.20
2018-12-19T13:31:33.331Z,3.30
2018-12-19T13:34:12.463Z,3.20
2018-12-19T13:36:51.667Z,3.20
2018-12-19T13:39:30.709Z,3.40
2018-12-19T13:42:05.999Z,3.50
2018-12-19T13:44:41.625Z,3.60
2018-12-19T13:47:16.952Z,3.60
2018-12-19T13:49:49.854Z,3.50
2018-12-19T13:52:25.001Z,3.60
2018-12-19T13:55:04.509Z,3.30
2018-12-19T13:57:39.327Z,3.30
2018-12-19T14:00:15.136Z,3.20
2018-12-19T14:02:57.817Z,3.10
2018-12-19T14:05:32.805Z,3.00
2018-12-19T14:08:12.346Z,3.10
2018-12-19T14:10:48.397Z,3.00
2018-12-19T14:13:23.559Z,3.00
2018-12-19T14:16:02.837Z,3.00
2018-12-19T14:18:38.227Z,2.90
2018-12-19T14:21:13.410Z,2.60
2018-12-19T14:23:52.526Z,2.70
2018-12-19T14:26:28.239Z,2.70
2018-12-19T14:29:05.406Z,2.70
2018-12-19T14:31:44.356Z,2.60
2018-12-19T14:34:23.240Z,2.40
2018-12-19T14:36:52.808Z,2.60
2018-12-19T14:39:35.939Z,2.80
2018-12-19T14:42:05.150Z,2.70
2018-12-19T14:44:41.380Z,2.70
2018-12-19T14:47:18.390Z,2.50
2018-12-19T14:49:57.762Z,2.50
2018-12-19T14:52:35.173Z,2.40
2018-12-19T14:55:14.557Z,2.40
2018-12-19T14:57:49.846Z,2.30
2018-12-19T15:00:26.648Z,2.30
2018-12-19T15:03:05.992Z,2.20
2018-12-19T15:05:45.057Z,2.10
2018-12-19T15:08:20.381Z,2.10
2018-12-19T15:10:56.350Z,2.20
2018-12-19T15:13:35.350Z,2.10
2018-12-19T15:16:16.453Z,2.20
2018-12-19T15:18:52.325Z,2.10
2018-12-19T15:21:28.874Z,2.20
2018-12-19T15:24:08.162Z,2.00
2018-12-19T15:26:47.342Z,1.90
2018-12-19T15:29:26.614Z,2.00
2018-12-19T15:32:06.975Z,2.00
2018-12-19T15:34:42.230Z,2.10
2018-12-19T15:37:21.340Z,2.10
2018-12-19T15:39:58.296Z,2.00
2018-12-19T15:42:37.382Z,1.90
2018-12-19T15:45:12.690Z,1.90
2018-12-19T15:47:52.184Z,1.80
2018-12-19T15:50:29.447Z,1.90
2018-12-19T15:53:04.606Z,1.90
2018-12-19T15:55:41.463Z,1.90
2018-12-19T15:58:16.550Z,1.90
2018-12-19T16:00:52.162Z,1.70
2018-12-19T16:03:27.096Z,1.70
2018-12-19T16:06:03.308Z,1.70
2018-12-19T16:08:38.257Z,1.70
2018-12-19T16:11:14.683Z,1.60
2018-12-19T16:13:50.127Z,1.60
2018-12-19T16:16:26.799Z,1.70
2018-12-19T16:19:02.162Z,1.80
2018-12-19T16:21:41.118Z,1.90
2018-12-19T16:24:18.403Z,1.90
2018-12-19T16:26:56.313Z,1.90
2018-12-19T16:29:31.656Z,1.80
2018-12-19T16:32:10.253Z,1.80
2018-12-19T16:34:48.677Z,1.90
2018-12-19T16:37:23.977Z,1.90
2018-12-19T16:39:59.132Z,1.90
2018-12-19T16:42:36.100Z,1.90
2018-12-19T16:45:11.202Z,1.80
2018-12-19T16:47:46.602Z,1.90
2018-12-19T16:50:25.479Z,1.90
2018-12-19T16:53:02.723Z,1.80
2018-12-19T16:55:42.281Z,1.80
2018-12-19T16:58:21.085Z,1.80
2018-12-19T17:00:56.394Z,1.70
2018-12-19T17:03:32.275Z,1.80
2018-12-19T17:06:09.463Z,1.80
2018-12-19T17:08:48.027Z,1.80
2018-12-19T17:11:23.713Z,1.90
2018-12-19T17:14:01.317Z,1.90
2018-12-19T17:16:36.434Z,1.80
2018-12-19T17:19:13.602Z,1.70
2018-12-19T17:21:50.829Z,1.70
2018-12-19T17:24:45.837Z,1.70
2018-12-19T17:27:24.865Z,1.70
2018-12-19T17:30:04.325Z,1.70
2018-12-19T17:32:40.927Z,1.70
2018-12-19T17:35:17.940Z,1.80
2018-12-19T17:37:53.208Z,1.80
2018-12-19T17:40:29.186Z,1.80
2018-12-19T17:43:06.826Z,1.70
2018-12-19T17:45:45.821Z,1.70
2018-12-19T17:48:23.203Z,1.60
2018-12-19T17:51:01.975Z,1.70
2018-12-19T17:53:39.218Z,1.70
2018-12-19T17:56:24.583Z,1.70
2018-12-19T17:59:00.171Z,1.80
2018-12-19T18:01:40.534Z,1.90
2018-12-19T18:04:20.470Z,1.80
2018-12-19T18:06:59.452Z,1.90
2018-12-19T18:09:41.112Z,1.80
2018-12-19T18:12:15.969Z,1.80
2018-12-19T18:14:50.758Z,1.90
2018-12-19T18:17:28.204Z,1.90
2018-12-19T18:20:03.879Z,1.90
2018-12-19T18:22:40.458Z,1.90
2018-12-19T18:25:26.114Z,1.90
2018-12-19T18:28:00.794Z,2.00
2018-12-19T18:33:34.298Z,2.00
2018-12-19T18:36:11.057Z,2.00
2018-12-19T18:38:47.877Z,2.00
2018-12-19T18:41:29.328Z,1.90
2018-12-19T18:44:06.505Z,1.80
2018-12-19T18:46:42.039Z,1.90
2018-12-19T18:49:19.662Z,1.90
2018-12-19T18:51:58.307Z,1.90
2018-12-19T18:54:37.786Z,1.90
2018-12-19T18:57:15.538Z,1.80
2018-12-19T18:59:47.907Z,1.70
2018-12-19T19:02:25.642Z,1.60
2018-12-19T19:07:36.188Z,1.50
2018-12-19T19:10:13.270Z,1.50
2018-12-19T19:12:52.690Z,1.60
2018-12-19T19:15:27.757Z,1.60
2018-12-19T19:18:06.806Z,1.50
2018-12-19T19:20:46.164Z,1.50
2018-12-19T19:23:19.894Z,1.50
2018-12-19T19:25:59.004Z,1.50
2018-12-19T19:28:36.414Z,1.50
2018-12-19T19:31:11.686Z,1.50
2018-12-19T19:33:55.323Z,1.60
2018-12-19T19:36:30.522Z,1.50
2018-12-19T19:39:09.494Z,1.50
2018-12-19T19:41:45.030Z,1.60
2018-12-19T19:44:29.442Z,1.60
2018-12-19T19:47:04.741Z,1.60
2018-12-19T19:49:39.538Z,1.50
2018-12-19T19:52:14.908Z,1.50
2018-12-19T19:55:01.762Z,1.60
2018-12-19T19:57:40.825Z,1.60
2018-12-19T20:00:20.718Z,1.50
2018-12-19T20:02:56.751Z,1.50
2018-12-19T20:05:36.544Z,1.40
2018-12-19T20:08:13.597Z,1.40
2018-12-19T20:10:53.010Z,1.30
2018-12-19T20:13:33.477Z,1.40
2018-12-19T20:16:09.703Z,1.40
2018-12-19T20:18:47.084Z,1.40
2018-12-19T20:21:23.190Z,1.30
2018-12-19T20:23:58.214Z,1.20
2018-12-19T20:26:41.087Z,1.20
2018-12-19T20:29:16.009Z,1.20
2018-12-19T20:31:51.387Z,1.10
2018-12-19T20:34:31.184Z,1.20
2018-12-19T20:37:06.151Z,1.20
2018-12-19T20:39:45.598Z,1.30
2018-12-19T20:42:20.881Z,1.30
2018-12-19T20:45:00.804Z,1.20
2018-12-19T20:47:39.000Z,1.20
2018-12-19T20:50:14.749Z,1.20
2018-12-19T20:52:49.889Z,1.20
2018-12-19T20:55:29.766Z,1.20
2018-12-19T20:58:06.764Z,1.20
2018-12-19T21:00:46.500Z,1.30
2018-12-19T21:03:26.318Z,1.40
2018-12-19T21:06:03.655Z,1.30
2018-12-19T21:08:38.730Z,1.40
2018-12-19T21:11:15.825Z,1.30
2018-12-19T21:13:51.946Z,1.50
2018-12-19T21:16:36.591Z,1.40
2018-12-19T21:19:15.560Z,1.30
2018-12-19T21:21:54.276Z,1.30
2018-12-19T21:24:29.470Z,1.30
2018-12-19T21:27:04.763Z,1.40
2018-12-19T21:29:45.263Z,1.50
2018-12-19T21:32:20.289Z,1.50
2018-12-19T21:34:55.427Z,1.50
2018-12-19T21:37:34.839Z,1.40
2018-12-19T21:40:13.769Z,1.30
2018-12-19T21:42:49.372Z,1.30
2018-12-19T21:45:29.002Z,1.20
2018-12-19T21:48:07.990Z,1.30
2018-12-19T21:50:47.173Z,1.20
2018-12-19T21:53:22.598Z,1.30
2018-12-19T21:55:57.882Z,1.40
2018-12-19T21:58:33.566Z,1.40
2018-12-19T22:01:08.527Z,1.40
2018-12-19T22:03:47.957Z,1.40
2018-12-19T22:06:27.007Z,1.30
2018-12-19T22:09:02.129Z,1.30
2018-12-19T22:11:32.769Z,1.30
2018-12-19T22:14:12.278Z,1.20
2018-12-19T22:16:53.009Z,1.20
2018-12-19T22:19:27.818Z,1.10
2018-12-19T22:22:02.950Z,1.10
2018-12-19T22:24:42.374Z,1.10
2018-12-19T22:27:17.605Z,1.00
2018-12-19T22:29:55.049Z,1.00
2018-12-19T22:32:30.399Z,1.00
2018-12-19T22:35:09.707Z,1.00
2018-12-19T22:37:45.170Z,1.00
2018-12-19T22:40:22.513Z,0.90
2018-12-19T22:46:09.838Z,1.00
2018-12-19T22:48:44.958Z,1.00
2018-12-19T22:51:20.250Z,1.00
2018-12-19T22:53:59.391Z,1.10
2018-12-19T22:56:36.893Z,1.00
2018-12-19T22:59:15.956Z,1.10
2018-12-19T23:02:57.030Z,1.00
2018-12-19T23:05:39.585Z,1.00
2018-12-19T23:08:15.082Z,1.00
2018-12-19T23:10:50.257Z,1.00
2018-12-19T23:13:29.432Z,1.00
2018-12-19T23:16:10.251Z,1.10
2018-12-19T23:18:50.537Z,1.10
2018-12-19T23:24:33.242Z,1.00
2018-12-19T23:27:09.602Z,1.10
2018-12-19T23:29:50.605Z,1.10
2018-12-19T23:32:29.780Z,1.20
2018-12-19T23:35:07.590Z,1.10
2018-12-19T23:37:47.051Z,1.00
2018-12-19T23:40:23.425Z,1.00
2018-12-19T23:42:59.080Z,0.90
2018-12-19T23:45:36.639Z,0.90
2018-12-19T23:48:15.793Z,0.90
2018-12-19T23:56:57.824Z,0.90
2018-12-19T23:59:37.090Z,1.00
